Time;durP1;ratioP1;P1;durP2;ratioP2;P2;SDS_P1;SDS_P2;PMS_P1;PMS_P2;Temp;Humidity;BMP_temperature;BMP_pressure;BME280_temperature;BME280_humidity;BME280_pressure;Samples;Min_cycle;Max_cycle;Signal;HPM_P1;HPM_P2
2022/08/18 00:01:50;;;;;;;0.52;0.40;;;18.40;99.90;;;;;;4999332;28;20081;-83
2022/08/18 00:04:16;;;;;;;0.40;0.40;;;18.40;99.90;;;;;;4996235;28;20085;-83
2022/08/18 00:06:43;;;;;;;0.60;0.47;;;18.30;99.90;;;;;;4979720;28;20503;-84
2022/08/18 00:09:10;;;;;;;0.68;0.50;;;18.40;99.90;;;;;;4980202;28;20034;-83
2022/08/18 00:11:44;;;;;;;0.20;0.20;;;18.40;99.90;;;;;;4982354;28;20030;-84
2022/08/18 00:14:17;;;;;;;0.45;0.35;;;18.40;99.90;;;;;;4995895;28;20194;-84
2022/08/18 00:16:44;;;;;;;0.30;0.22;;;18.40;99.90;;;;;;5011747;28;20435;-83
2022/08/18 00:19:11;;;;;;;0.40;0.32;;;18.30;99.90;;;;;;4995775;28;20042;-83
2022/08/18 00:21:37;;;;;;;0.35;0.35;;;18.40;99.90;;;;;;4985921;28;20053;-84
2022/08/18 00:24:05;;;;;;;0.50;0.30;;;18.30;99.90;;;;;;5020577;28;20042;-84
2022/08/18 00:26:31;;;;;;;0.10;0.10;;;18.30;99.90;;;;;;5015041;28;20081;-83
2022/08/18 00:28:58;;;;;;;1.13;0.52;;;18.30;99.90;;;;;;4998593;28;20077;-83
2022/08/18 00:31:25;;;;;;;0.95;0.65;;;18.30;99.90;;;;;;4983396;28;20150;-83
2022/08/18 00:33:52;;;;;;;0.55;0.28;;;18.30;99.90;;;;;;5024128;28;20037;-83
2022/08/18 00:36:19;;;;;;;0.52;0.30;;;18.30;99.90;;;;;;4978262;28;20049;-84
2022/08/18 00:38:45;;;;;;;0.30;0.30;;;18.30;99.90;;;;;;4964011;28;20086;-83
2022/08/18 00:41:12;;;;;;;0.68;0.47;;;18.30;99.90;;;;;;4979400;28;20513;-83
2022/08/18 00:43:44;;;;;;;0.38;0.28;;;18.20;99.90;;;;;;4995892;28;20033;-84
2022/08/18 00:46:27;;;;;;;0.35;0.35;;;18.20;99.90;;;;;;5034321;28;20041;-83
2022/08/18 00:48:54;;;;;;;0.25;0.25;;;18.20;99.90;;;;;;5034311;28;20116;-83
2022/08/18 00:51:32;;;;;;;0.30;0.20;;;18.20;99.90;;;;;;5030411;28;20034;-83
2022/08/18 00:54:07;;;;;;;0.30;0.22;;;18.20;99.90;;;;;;5013341;28;20038;-83
2022/08/18 00:56:54;;;;;;;0.40;0.30;;;18.20;99.90;;;;;;5020086;28;20073;-83
2022/08/18 00:59:42;;;;;;;0.30;0.30;;;18.20;99.90;;;;;;5014627;28;20054;-83
2022/08/18 01:02:18;;;;;;;0.93;0.60;;;18.20;99.90;;;;;;5030374;28;20488;-83
2022/08/18 01:05:08;;;;;;;0.52;0.30;;;18.10;99.90;;;;;;5016064;28;20071;-82
2022/08/18 01:07:41;;;;;;;0.22;0.17;;;18.10;99.90;;;;;;5014699;28;20038;-83
2022/08/18 01:10:08;;;;;;;1.27;0.52;;;18.10;99.90;;;;;;5000355;28;20030;-83
2022/08/18 01:12:36;;;;;;;0.08;0.08;;;18.10;99.90;;;;;;4998341;28;20398;-83
2022/08/18 01:15:03;;;;;;;0.50;0.45;;;18.10;99.90;;;;;;4997951;28;20486;-83
2022/08/18 01:23:16;;;;;;;0.47;0.40;;;18.10;99.90;;;;;;5017331;28;20052;-84
2022/08/18 01:25:59;;;;;;;0.10;0.08;;;18.10;99.90;;;;;;5012509;28;20046;-84
2022/08/18 01:28:28;;;;;;;0.30;0.30;;;18.00;99.90;;;;;;4996003;28;20038;-83
2022/08/18 01:30:57;;;;;;;0.32;0.22;;;18.00;99.90;;;;;;4997846;28;20081;-83
2022/08/18 01:33:27;;;;;;;0.20;0.20;;;18.00;99.90;;;;;;5010467;28;20435;-83
2022/08/18 01:35:54;;;;;;;0.30;0.30;;;18.00;99.90;;;;;;4994513;28;20082;-84
2022/08/18 01:38:21;;;;;;;1.95;0.50;;;18.00;99.90;;;;;;4962797;28;20046;-83
2022/08/18 01:40:49;;;;;;;0.43;0.40;;;18.00;99.90;;;;;;4978559;28;20050;-83
2022/08/18 01:43:16;;;;;;;0.25;0.22;;;18.00;99.90;;;;;;4994013;28;20166;-83
2022/08/18 01:45:43;;;;;;;1.30;0.43;;;18.00;99.90;;;;;;4978215;28;20077;-83
2022/08/18 01:48:10;;;;;;;0.25;0.17;;;18.00;99.90;;;;;;5009908;28;20046;-84
2022/08/18 01:50:40;;;;;;;0.70;0.45;;;18.00;99.90;;;;;;4994497;28;20034;-83
2022/08/18 01:53:10;;;;;;;0.10;0.10;;;18.00;99.90;;;;;;4989994;28;20038;-83
2022/08/18 01:55:43;;;;;;;0.32;0.25;;;18.00;99.90;;;;;;5010627;28;20038;-83
2022/08/18 01:58:11;;;;;;;0.40;0.38;;;18.00;99.90;;;;;;5010169;28;20077;-83
2022/08/18 02:00:39;;;;;;;0.45;0.38;;;18.00;99.90;;;;;;5029561;28;20546;-83
2022/08/18 02:03:11;;;;;;;0.75;0.45;;;18.00;99.90;;;;;;4997663;28;20491;-84
2022/08/18 02:05:43;;;;;;;0.20;0.20;;;18.00;99.90;;;;;;5029752;28;20558;-83
2022/08/18 02:08:11;;;;;;;0.25;0.25;;;18.00;99.90;;;;;;5027371;28;20030;-84
2022/08/18 02:10:38;;;;;;;0.15;0.15;;;18.10;99.90;;;;;;4997604;28;20046;-83
2022/08/18 02:13:05;;;;;;;0.17;0.17;;;18.00;99.90;;;;;;5029547;28;20074;-83
2022/08/18 02:15:32;;;;;;;0.47;0.30;;;18.00;99.90;;;;;;5013742;28;20525;-84
2022/08/18 02:17:59;;;;;;;0.30;0.30;;;18.00;99.90;;;;;;5013572;28;20470;-83
2022/08/18 02:20:26;;;;;;;0.10;0.10;;;18.10;99.90;;;;;;5014513;28;20073;-84
2022/08/18 02:22:53;;;;;;;0.20;0.20;;;18.10;99.90;;;;;;5035442;28;20459;-84
2022/08/18 02:25:20;;;;;;;0.13;0.13;;;18.10;99.90;;;;;;5009704;28;20129;-83
2022/08/18 02:27:46;;;;;;;0.10;0.10;;;18.10;99.90;;;;;;5013135;28;20041;-83
2022/08/18 02:30:15;;;;;;;0.20;0.20;;;18.10;99.90;;;;;;5028750;28;20058;-83
2022/08/18 02:32:42;;;;;;;0.15;0.10;;;18.10;99.90;;;;;;5046405;28;20046;-84
2022/08/18 02:35:10;;;;;;;0.73;0.40;;;18.10;99.90;;;;;;4997615;28;20042;-83
2022/08/18 02:37:37;;;;;;;0.80;0.52;;;18.10;99.90;;;;;;4997849;28;20050;-84
2022/08/18 02:40:05;;;;;;;0.30;0.30;;;18.10;99.90;;;;;;4997973;28;20046;-83
2022/08/18 02:42:31;;;;;;;0.20;0.20;;;18.10;99.90;;;;;;5013894;28;20046;-84
2022/08/18 02:44:58;;;;;;;0.20;0.20;;;18.10;99.90;;;;;;4997646;28;20096;-83
2022/08/18 02:47:25;;;;;;;0.30;0.20;;;18.10;99.90;;;;;;4981599;28;20050;-83
2022/08/18 02:49:51;;;;;;;0.40;0.40;;;18.10;99.90;;;;;;4997506;28;20540;-83
2022/08/18 02:52:18;;;;;;;0.80;0.30;;;18.10;99.90;;;;;;5013409;28;20042;-83
2022/08/18 02:54:46;;;;;;;0.85;0.32;;;18.10;99.90;;;;;;4997529;28;20485;-83
2022/08/18 02:57:13;;;;;;;0.70;0.40;;;18.20;99.90;;;;;;5030113;28;20119;-84
2022/08/18 02:59:40;;;;;;;0.25;0.25;;;18.20;99.90;;;;;;5004752;28;20041;-84
2022/08/18 03:02:09;;;;;;;0.30;0.30;;;18.20;99.90;;;;;;5036370;28;20091;-83
2022/08/18 03:04:35;;;;;;;0.35;0.35;;;18.20;99.90;;;;;;5052460;28;20041;-84
2022/08/18 03:07:05;;;;;;;0.20;0.20;;;18.20;99.90;;;;;;5036167;28;20099;-84
2022/08/18 03:09:33;;;;;;;0.25;0.20;;;18.20;99.90;;;;;;5035776;28;20099;-84
2022/08/18 03:12:00;;;;;;;0.30;0.30;;;18.20;99.90;;;;;;5036195;28;20042;-84
2022/08/18 03:14:28;;;;;;;0.50;0.15;;;18.20;99.90;;;;;;5036215;28;20056;-83
2022/08/18 03:16:55;;;;;;;0.30;0.30;;;18.30;99.90;;;;;;5019769;28;20420;-83
2022/08/18 03:19:23;;;;;;;0.45;0.32;;;18.20;99.90;;;;;;5019488;28;20041;-83
2022/08/18 03:21:51;;;;;;;0.40;0.38;;;18.20;99.90;;;;;;5035978;28;20128;-83
2022/08/18 03:24:18;;;;;;;0.55;0.50;;;18.20;99.90;;;;;;4975743;28;20045;-83
2022/08/18 03:26:44;;;;;;;0.47;0.30;;;18.20;99.90;;;;;;4973771;28;20483;-84
2022/08/18 03:29:12;;;;;;;0.30;0.30;;;18.20;99.90;;;;;;4996950;28;20137;-83
2022/08/18 03:31:42;;;;;;;0.40;0.30;;;18.20;99.90;;;;;;5012845;28;20045;-83
2022/08/18 03:34:09;;;;;;;0.40;0.40;;;18.20;99.90;;;;;;5034267;28;20064;-84
2022/08/18 03:36:36;;;;;;;0.50;0.40;;;18.20;99.90;;;;;;5000546;28;20129;-84
2022/08/18 03:39:06;;;;;;;0.63;0.28;;;18.20;99.90;;;;;;5000073;28;20042;-83
2022/08/18 03:41:34;;;;;;;0.52;0.30;;;18.20;99.90;;;;;;5015082;28;20049;-84
2022/08/18 03:44:02;;;;;;;0.20;0.20;;;18.30;99.90;;;;;;4999971;28;20735;-83
2022/08/18 03:46:29;;;;;;;0.35;0.30;;;18.30;99.90;;;;;;5031848;28;20046;-83
2022/08/18 03:48:57;;;;;;;0.55;0.32;;;18.20;99.90;;;;;;5015607;28;20058;-84
2022/08/18 03:51:27;;;;;;;0.35;0.30;;;18.20;99.90;;;;;;5031657;28;20072;-83
2022/08/18 03:53:59;;;;;;;0.30;0.30;;;18.20;99.90;;;;;;5013894;28;20042;-83
2022/08/18 03:56:31;;;;;;;0.47;0.30;;;18.20;99.90;;;;;;5017291;28;20035;-83
2022/08/18 03:59:06;;;;;;;0.10;0.10;;;18.20;99.90;;;;;;5014821;28;20062;-84
2022/08/18 04:01:38;;;;;;;0.47;0.32;;;18.20;99.90;;;;;;5031863;28;20157;-84
2022/08/18 04:04:07;;;;;;;0.38;0.32;;;18.30;99.90;;;;;;5032057;28;20045;-84
2022/08/18 04:06:39;;;;;;;0.20;0.20;;;18.20;99.90;;;;;;5031633;28;20077;-83
2022/08/18 04:09:09;;;;;;;0.43;0.20;;;18.20;99.90;;;;;;5021971;28;20046;-83
2022/08/18 04:11:37;;;;;;;0.15;0.15;;;18.20;99.90;;;;;;5020204;28;20045;-83
2022/08/18 04:14:05;;;;;;;0.22;0.20;;;18.30;99.90;;;;;;5035100;28;20049;-83
2022/08/18 04:16:33;;;;;;;2.08;0.52;;;18.30;99.90;;;;;;5023906;28;20053;-83
2022/08/18 04:19:03;;;;;;;0.57;0.32;;;18.30;99.90;;;;;;5014960;28;20132;-84
2022/08/18 04:21:39;;;;;;;0.10;0.10;;;18.30;99.90;;;;;;4999004;28;20076;-84
2022/08/18 04:24:07;;;;;;;0.70;0.40;;;18.30;99.90;;;;;;5031018;28;20156;-83
2022/08/18 04:26:44;;;;;;;1.00;0.40;;;18.30;99.90;;;;;;5030450;28;20045;-83
2022/08/18 04:29:13;;;;;;;0.17;0.13;;;18.30;99.90;;;;;;5014919;28;20172;-84
2022/08/18 04:31:40;;;;;;;0.50;0.45;;;18.30;99.90;;;;;;5014503;28;20038;-84
2022/08/18 04:34:07;;;;;;;0.25;0.25;;;18.30;99.90;;;;;;4998807;28;20487;-83
2022/08/18 04:36:35;;;;;;;0.30;0.20;;;18.30;99.90;;;;;;4998173;28;20053;-83
2022/08/18 04:39:05;;;;;;;0.30;0.28;;;18.30;99.90;;;;;;5014499;28;20053;-84
2022/08/18 04:41:33;;;;;;;0.10;0.08;;;18.30;99.90;;;;;;5032708;28;20132;-83
2022/08/18 04:44:02;;;;;;;0.65;0.40;;;18.30;99.90;;;;;;5018499;28;20048;-82
2022/08/18 04:46:34;;;;;;;0.10;0.10;;;18.30;99.90;;;;;;5024250;28;20033;-82
2022/08/18 04:49:02;;;;;;;0.28;0.15;;;18.30;99.90;;;;;;5011012;28;20389;-83
2022/08/18 04:51:29;;;;;;;0.28;0.22;;;18.30;99.90;;;;;;5023991;28;20045;-83
2022/08/18 04:53:59;;;;;;;0.30;0.30;;;18.30;99.90;;;;;;5002190;28;20533;-84
2022/08/18 04:56:31;;;;;;;0.20;0.20;;;18.30;99.90;;;;;;4981334;28;20034;-83
2022/08/18 04:59:06;;;;;;;0.40;0.38;;;18.30;99.90;;;;;;5009067;28;20050;-83
2022/08/18 05:01:44;;;;;;;0.13;0.13;;;18.30;99.90;;;;;;5055109;28;20048;-82
2022/08/18 05:04:13;;;;;;;0.28;0.15;;;18.30;99.90;;;;;;5041497;28;20299;-83
2022/08/18 05:06:42;;;;;;;0.40;0.15;;;18.30;99.90;;;;;;5046579;28;20057;-85
2022/08/18 05:09:10;;;;;;;0.20;0.20;;;18.30;99.90;;;;;;5030768;28;20056;-82
2022/08/18 05:11:37;;;;;;;0.25;0.25;;;18.30;99.90;;;;;;5046685;28;20077;-83
2022/08/18 05:14:07;;;;;;;0.30;0.22;;;18.40;99.90;;;;;;5030127;28;20108;-82
2022/08/18 05:16:35;;;;;;;0.20;0.20;;;18.30;99.90;;;;;;5030125;28;20037;-84
2022/08/18 05:19:07;;;;;;;0.13;0.13;;;18.40;99.90;;;;;;5031031;28;20052;-84
2022/08/18 05:21:40;;;;;;;1.00;0.45;;;18.40;99.90;;;;;;5014357;28;20501;-85
2022/08/18 05:24:10;;;;;;;0.25;0.20;;;18.30;99.90;;;;;;5050566;28;20252;-88
2022/08/18 05:26:36;;;;;;;0.20;0.20;;;18.30;99.90;;;;;;5050509;28;20045;-89
2022/08/18 05:29:03;;;;;;;0.45;0.20;;;18.30;99.90;;;;;;5034466;28;20125;-87
2022/08/18 05:31:31;;;;;;;0.40;0.30;;;18.30;99.90;;;;;;5050850;28;20041;-89
2022/08/18 05:34:01;;;;;;;1.25;0.50;;;18.30;99.90;;;;;;5018230;28;20054;-89
2022/08/18 05:36:37;;;;;;;0.13;0.10;;;18.30;99.90;;;;;;5010754;28;20042;-88
2022/08/18 05:39:28;;;;;;;0.30;0.30;;;18.30;99.90;;;;;;5011969;28;20034;-88
2022/08/18 05:42:06;;;;;;;0.60;0.40;;;18.30;99.90;;;;;;5020701;28;20817;-87
2022/08/18 05:44:42;;;;;;;0.82;0.60;;;18.30;99.90;;;;;;5034358;28;20068;-86
2022/08/18 05:47:18;;;;;;;0.10;0.10;;;18.30;99.90;;;;;;5029004;28;20073;-87
2022/08/18 05:49:49;;;;;;;0.10;0.10;;;18.30;99.90;;;;;;5011298;28;20038;-87
2022/08/18 05:52:30;;;;;;;0.30;0.30;;;18.30;99.90;;;;;;4995431;28;20038;-87
2022/08/18 05:58:03;;;;;;;0.30;0.30;;;18.40;99.90;;;;;;5055599;28;20046;-82
2022/08/18 06:00:30;;;;;;;;;;;18.50;99.90;;;;;;5030656;28;20449;-87
2022/08/18 06:03:37;;;;;;;1.25;0.40;;;18.60;99.90;;;;;;5031166;28;19922;-82
2022/08/18 06:06:10;;;;;;;0.20;0.20;;;18.60;99.90;;;;;;4936275;29;20047;-82
2022/08/18 06:08:42;;;;;;;0.30;0.30;;;18.60;99.90;;;;;;4933023;29;20076;-88
2022/08/18 06:11:09;;;;;;;0.28;0.28;;;18.70;99.90;;;;;;4971188;28;20072;-88
2022/08/18 06:13:39;;;;;;;0.13;0.13;;;18.70;99.90;;;;;;4994762;28;20046;-82
2022/08/18 06:16:28;;;;;;;0.28;0.20;;;18.80;99.90;;;;;;5010720;28;20034;-82
2022/08/18 06:19:07;;;;;;;0.10;0.10;;;18.80;99.90;;;;;;5010133;28;20035;-87
2022/08/18 06:21:43;;;;;;;0.35;0.28;;;18.80;99.90;;;;;;5023029;28;20549;-86
2022/08/18 06:24:35;;;;;;;0.20;0.20;;;18.80;99.90;;;;;;5030976;28;20050;-88
2022/08/18 06:27:33;;;;;;;0.52;0.40;;;18.80;99.90;;;;;;5025885;28;20128;-82
2022/08/18 06:30:05;;;;;;;0.30;0.30;;;18.90;99.90;;;;;;5029958;28;20034;-87
2022/08/18 06:32:56;;;;;;;0.30;0.30;;;19.00;99.90;;;;;;5030144;28;20479;-87
2022/08/18 06:35:37;;;;;;;0.30;0.30;;;19.00;99.90;;;;;;5029656;28;20100;-82
2022/08/18 06:41:15;;;;;;;0.30;0.28;;;19.00;99.90;;;;;;5030269;28;20073;-88
2022/08/18 06:44:00;;;;;;;0.65;0.43;;;19.00;99.90;;;;;;5030099;28;20049;-87
2022/08/18 06:46:46;;;;;;;0.22;0.22;;;19.10;99.90;;;;;;5030047;28;20046;-87
2022/08/18 06:49:30;;;;;;;0.32;0.28;;;19.10;99.90;;;;;;5036941;28;20407;-87
2022/08/18 06:51:56;;;;;;;0.68;0.20;;;19.20;99.90;;;;;;5014945;28;20042;-82
2022/08/18 06:54:28;;;;;;;0.10;0.10;;;19.20;99.90;;;;;;5010039;28;20096;-83
2022/08/18 06:56:56;;;;;;;0.25;0.25;;;19.20;99.90;;;;;;5024081;28;20045;-88
2022/08/18 06:59:23;;;;;;;0.17;0.17;;;19.30;99.90;;;;;;5013882;28;20120;-88
2022/08/18 07:01:59;;;;;;;0.20;0.20;;;19.30;99.90;;;;;;5013219;28;20118;-82
2022/08/18 07:04:42;;;;;;;0.40;0.40;;;19.30;99.90;;;;;;5013227;28;20499;-88
2022/08/18 07:07:27;;;;;;;0.15;0.13;;;19.40;99.90;;;;;;5009890;28;20042;-88
2022/08/18 07:09:54;;;;;;;0.80;0.35;;;19.40;99.90;;;;;;5009623;28;20046;-82
2022/08/18 07:12:25;;;;;;;0.25;0.22;;;19.40;99.90;;;;;;4991149;28;20064;-82
2022/08/18 07:14:57;;;;;;;0.40;0.40;;;19.40;99.90;;;;;;5012851;28;20769;-81
2022/08/18 07:17:33;;;;;;;0.30;0.30;;;19.40;99.90;;;;;;5014979;28;20091;-81
2022/08/18 07:20:06;;;;;;;0.10;0.10;;;19.40;99.90;;;;;;5012812;28;20451;-83
2022/08/18 07:22:56;;;;;;;0.60;0.30;;;19.40;99.90;;;;;;5009293;28;20390;-82
2022/08/18 07:25:28;;;;;;;0.10;0.10;;;19.50;99.90;;;;;;5007363;28;20050;-82
2022/08/18 07:27:55;;;;;;;0.45;0.32;;;19.40;99.90;;;;;;5015034;28;20125;-88
2022/08/18 07:30:22;;;;;;;0.63;0.45;;;19.40;99.90;;;;;;5002175;28;20475;-88
2022/08/18 07:33:06;;;;;;;0.98;0.30;;;19.40;99.90;;;;;;5048352;28;20065;-87
2022/08/18 07:35:42;;;;;;;0.40;0.30;;;19.40;99.90;;;;;;5013270;28;20517;-82
2022/08/18 07:38:36;;;;;;;0.30;0.30;;;19.40;99.90;;;;;;5029134;28;20037;-91
2022/08/18 07:41:13;;;;;;;0.80;0.43;;;19.50;99.90;;;;;;5000378;28;20137;-90
2022/08/18 07:44:04;;;;;;;0.35;0.35;;;19.50;99.90;;;;;;5014651;28;20042;-83
2022/08/18 07:47:11;;;;;;;0.17;0.10;;;19.50;99.90;;;;;;5007070;28;20045;-83
2022/08/18 07:49:41;;;;;;;0.22;0.20;;;19.50;99.90;;;;;;5014855;28;20056;-83
2022/08/18 07:52:25;;;;;;;0.30;0.30;;;19.60;99.90;;;;;;5014508;28;20037;-93
2022/08/18 07:55:09;;;;;;;0.45;0.40;;;19.50;99.90;;;;;;5015284;28;20048;-92
2022/08/18 07:57:54;;;;;;;0.30;0.30;;;19.50;99.90;;;;;;5016492;28;20084;-82
2022/08/18 08:00:21;;;;;;;0.55;0.28;;;19.50;99.90;;;;;;5016376;28;20052;-82
2022/08/18 08:03:13;;;;;;;0.55;0.32;;;19.40;99.90;;;;;;5013364;28;21485;-83
2022/08/18 08:05:51;;;;;;;0.25;0.25;;;19.40;99.90;;;;;;5015852;28;20041;-84
2022/08/18 08:08:29;;;;;;;0.10;0.10;;;19.40;99.90;;;;;;5025754;28;20041;-85
2022/08/18 08:11:25;;;;;;;0.45;0.40;;;19.30;99.90;;;;;;5028730;28;20041;-82
2022/08/18 08:14:00;;;;;;;0.73;0.45;;;19.30;99.90;;;;;;5002184;28;20115;-87
2022/08/18 08:16:43;;;;;;;0.75;0.32;;;19.30;99.90;;;;;;5024878;28;20047;-88
2022/08/18 08:19:19;;;;;;;0.30;0.30;;;19.30;99.90;;;;;;5020263;28;20042;-83
2022/08/18 08:22:04;;;;;;;0.40;0.40;;;19.30;99.90;;;;;;5000698;28;20387;-83
2022/08/18 08:24:42;;;;;;;0.30;0.30;;;19.30;99.90;;;;;;5031008;28;20077;-84
2022/08/18 08:27:13;;;;;;;0.95;0.55;;;19.30;99.90;;;;;;5014688;28;20034;-82
2022/08/18 08:29:55;;;;;;;0.15;0.13;;;19.30;99.90;;;;;;5009480;28;20117;-84
2022/08/18 08:32:27;;;;;;;0.45;0.45;;;19.30;99.90;;;;;;5012045;28;20065;-82
2022/08/18 08:35:10;;;;;;;0.80;0.52;;;19.30;99.90;;;;;;5020756;28;20133;-83
2022/08/18 08:37:47;;;;;;;0.57;0.50;;;19.30;99.90;;;;;;5004931;28;20052;-82
2022/08/18 08:40:19;;;;;;;0.43;0.30;;;19.30;99.90;;;;;;5013803;28;20506;-81
2022/08/18 08:43:06;;;;;;;0.60;0.40;;;19.40;99.90;;;;;;5010783;28;20451;-82
2022/08/18 08:45:43;;;;;;;0.75;0.57;;;19.40;99.90;;;;;;5017109;28;20042;-88
2022/08/18 08:48:26;;;;;;;0.30;0.30;;;19.50;99.90;;;;;;4995291;28;20042;-88
2022/08/18 08:50:59;;;;;;;0.43;0.30;;;19.50;99.90;;;;;;5027199;28;20385;-83
2022/08/18 08:53:37;;;;;;;0.22;0.22;;;19.60;99.90;;;;;;5028774;28;20049;-85
2022/08/18 08:56:13;;;;;;;0.55;0.50;;;19.70;99.90;;;;;;5013995;28;20038;-82
2022/08/18 08:58:51;;;;;;;0.63;0.40;;;19.70;99.90;;;;;;5025643;28;20523;-83
2022/08/18 09:01:32;;;;;;;0.22;0.22;;;19.70;99.90;;;;;;5045651;28;20093;-83
2022/08/18 09:04:05;;;;;;;0.75;0.38;;;19.60;99.90;;;;;;5045667;28;20107;-85
2022/08/18 09:06:31;;;;;;;0.30;0.30;;;19.60;99.90;;;;;;5046797;28;20033;-86
2022/08/18 09:09:19;;;;;;;0.10;0.10;;;19.70;99.90;;;;;;5029642;28;20056;-85
2022/08/18 09:11:49;;;;;;;0.20;0.20;;;19.60;99.90;;;;;;5030194;28;20038;-84
2022/08/18 09:14:48;;;;;;;0.47;0.32;;;19.60;99.90;;;;;;5045947;28;20180;-83
2022/08/18 09:17:41;;;;;;;0.30;0.15;;;19.60;99.90;;;;;;5029998;28;20509;-82
2022/08/18 09:20:26;;;;;;;0.20;0.20;;;19.70;99.90;;;;;;5046423;28;20038;-85
2022/08/18 09:22:57;;;;;;;0.63;0.30;;;19.80;99.90;;;;;;5027210;28;20465;-89
2022/08/18 09:25:53;;;;;;;0.30;0.30;;;19.90;99.90;;;;;;5025703;28;20125;-92
2022/08/18 09:28:26;;;;;;;;;;;20.00;99.90;;;;;;5026268;28;20049;-85
2022/08/18 09:31:13;;;;;;;0.28;0.20;;;20.10;99.90;;;;;;5026915;28;20310;-85
2022/08/18 09:33:39;;;;;;;0.15;0.15;;;20.30;99.90;;;;;;5024412;28;20500;-85
2022/08/18 09:36:20;;;;;;;0.20;0.20;;;20.40;99.90;;;;;;5026953;28;20048;-87
2022/08/18 09:42:00;;;;;;;0.20;0.20;;;20.60;99.90;;;;;;5035957;28;20073;-86
2022/08/18 09:44:45;;;;;;;0.17;0.17;;;20.70;99.90;;;;;;5028156;28;20038;-93
2022/08/18 09:47:32;;;;;;;0.13;0.13;;;20.70;99.90;;;;;;5046545;28;20167;-85
2022/08/18 09:50:05;;;;;;;0.28;0.28;;;20.80;99.90;;;;;;5057495;28;20046;-93
2022/08/18 09:52:31;;;;;;;0.22;0.10;;;20.90;99.90;;;;;;5047223;28;20136;-84
2022/08/18 09:54:58;;;;;;;0.30;0.30;;;20.80;99.90;;;;;;5014426;28;20185;-85
2022/08/18 09:57:27;;;;;;;0.65;0.47;;;20.90;99.90;;;;;;5031029;28;20706;-85
2022/08/18 10:00:18;;;;;;;0.40;0.40;;;21.00;99.90;;;;;;5026131;28;20487;-86
2022/08/18 10:02:48;;;;;;;0.22;0.22;;;20.90;99.90;;;;;;5011007;28;20041;-85
2022/08/18 10:05:14;;;;;;;1.05;0.60;;;20.90;99.90;;;;;;5026536;28;20492;-85
2022/08/18 10:07:47;;;;;;;0.55;0.40;;;20.90;99.90;;;;;;5028481;28;20127;-85
2022/08/18 10:10:23;;;;;;;0.20;0.20;;;21.00;99.90;;;;;;5029639;28;20042;-92
2022/08/18 10:13:22;;;;;;;0.30;0.30;;;21.00;99.90;;;;;;5032413;28;20050;-83
2022/08/18 10:15:51;;;;;;;0.30;0.30;;;21.00;99.90;;;;;;5013095;28;20638;-83
2022/08/18 10:18:24;;;;;;;0.60;0.57;;;21.00;99.90;;;;;;5024208;28;20042;-88
2022/08/18 10:21:06;;;;;;;0.47;0.32;;;21.10;99.90;;;;;;5040370;28;20045;-93
2022/08/18 10:24:07;;;;;;;1.15;0.45;;;21.00;99.90;;;;;;5017532;28;20046;-85
2022/08/18 10:26:36;;;;;;;1.75;0.52;;;21.00;99.90;;;;;;5019130;28;20049;-85
2022/08/18 10:29:05;;;;;;;0.10;0.10;;;21.00;99.90;;;;;;5022699;28;20038;-92
2022/08/18 10:31:54;;;;;;;0.25;0.25;;;21.00;99.90;;;;;;5030395;28;20036;-85
2022/08/18 10:34:47;;;;;;;0.38;0.28;;;21.00;99.90;;;;;;5010499;28;20050;-90
2022/08/18 10:37:33;;;;;;;0.10;0.10;;;21.00;99.90;;;;;;5010879;28;20089;-92
2022/08/18 10:40:15;;;;;;;0.65;0.28;;;21.00;99.90;;;;;;5040178;28;20042;-85
2022/08/18 10:42:56;;;;;;;0.30;0.30;;;21.00;99.90;;;;;;5027907;28;20076;-84
2022/08/18 10:45:25;;;;;;;0.30;0.20;;;21.00;99.90;;;;;;5014983;28;20077;-84
2022/08/18 10:48:18;;;;;;;0.10;0.10;;;21.10;99.90;;;;;;5026118;28;20462;-93
2022/08/18 10:50:53;;;;;;;0.25;0.25;;;21.00;99.90;;;;;;5025288;28;20534;-91
2022/08/18 10:53:20;;;;;;;0.15;0.15;;;21.00;99.90;;;;;;5027512;28;20037;-91
2022/08/18 10:56:14;;;;;;;0.20;0.20;;;21.00;99.90;;;;;;5033320;28;20052;-92
2022/08/18 10:58:41;;;;;;;0.30;0.30;;;21.00;99.90;;;;;;5030111;28;20051;-92
2022/08/18 11:01:28;;;;;;;0.20;0.20;;;21.00;99.90;;;;;;5023855;28;20488;-87
2022/08/18 11:04:23;;;;;;;0.52;0.30;;;21.10;99.90;;;;;;5028574;28;20045;-86
2022/08/18 11:06:55;;;;;;;0.30;0.28;;;21.00;99.90;;;;;;5032763;28;20439;-92
2022/08/18 11:09:27;;;;;;;0.40;0.32;;;21.00;99.90;;;;;;5030161;28;20042;-92
2022/08/18 11:11:58;;;;;;;0.15;0.15;;;21.10;99.90;;;;;;5033471;28;20049;-86
2022/08/18 11:14:46;;;;;;;0.52;0.30;;;21.10;99.90;;;;;;5022573;28;20038;-86
2022/08/18 11:17:43;;;;;;;0.10;0.10;;;21.10;99.90;;;;;;5037344;28;20034;-86
2022/08/18 11:20:13;;;;;;;0.30;0.20;;;21.10;99.90;;;;;;5031878;28;20057;-91
2022/08/18 11:22:50;;;;;;;0.20;0.20;;;21.20;99.90;;;;;;5032964;28;20034;-92
2022/08/18 11:25:38;;;;;;;0.98;0.20;;;21.20;99.90;;;;;;5033077;28;20038;-91
2022/08/18 11:28:15;;;;;;;0.43;0.30;;;21.30;99.90;;;;;;5032693;28;20041;-88
2022/08/18 11:30:46;;;;;;;0.10;0.10;;;21.40;99.90;;;;;;5029361;28;20124;-87
2022/08/18 11:33:16;;;;;;;0.10;0.10;;;21.50;99.90;;;;;;5032845;28;20133;-90
2022/08/18 11:36:05;;;;;;;0.20;0.20;;;21.60;99.90;;;;;;5025023;28;20073;-89
2022/08/18 11:38:33;;;;;;;1.20;0.40;;;21.70;99.90;;;;;;4996829;28;20042;-86
2022/08/18 11:41:17;;;;;;;0.30;0.30;;;21.80;99.90;;;;;;5002431;28;20105;-93
2022/08/18 11:43:46;;;;;;;0.20;0.20;;;21.80;99.90;;;;;;5013561;28;20177;-91
2022/08/18 11:46:19;;;;;;;0.38;0.20;;;21.80;99.90;;;;;;5012723;28;20534;-86
2022/08/18 11:48:49;;;;;;;0.43;0.30;;;21.80;99.90;;;;;;5013973;28;20042;-86
2022/08/18 11:51:23;;;;;;;0.52;0.40;;;21.80;99.90;;;;;;5030825;28;20380;-86
2022/08/18 11:53:58;;;;;;;0.10;0.10;;;21.80;99.90;;;;;;5032791;28;20069;-92
2022/08/18 11:56:31;;;;;;;0.30;0.20;;;21.80;99.90;;;;;;5032509;28;20045;-86
2022/08/18 11:59:34;;;;;;;0.20;0.20;;;21.80;99.90;;;;;;5032409;28;20065;-86
2022/08/18 12:02:02;;;;;;;0.63;0.30;;;21.80;99.90;;;;;;4990145;28;20148;-91
2022/08/18 12:04:39;;;;;;;0.38;0.30;;;21.70;99.90;;;;;;5013606;28;20518;-92
2022/08/18 12:07:10;;;;;;;0.15;0.13;;;21.70;99.90;;;;;;5032280;28;20038;-92
2022/08/18 12:09:47;;;;;;;1.25;0.32;;;21.70;99.90;;;;;;5032186;28;20439;-90
2022/08/18 12:12:29;;;;;;;0.10;0.10;;;21.70;99.90;;;;;;5048078;28;20104;-92
2022/08/18 12:15:11;;;;;;;0.13;0.10;;;21.70;99.90;;;;;;5030435;28;20065;-85
2022/08/18 12:17:39;;;;;;;0.47;0.28;;;21.80;99.90;;;;;;5045481;28;20035;-86
2022/08/18 12:20:08;;;;;;;0.03;0.03;;;21.80;99.90;;;;;;5015485;28;20045;-85
2022/08/18 12:22:37;;;;;;;0.30;0.20;;;21.80;99.90;;;;;;5015765;28;20037;-91
2022/08/18 12:25:07;;;;;;;0.55;0.25;;;21.80;99.90;;;;;;5032499;28;20046;-89
2022/08/18 12:27:33;;;;;;;0.63;0.40;;;21.80;99.90;;;;;;5028377;28;20056;-83
2022/08/18 12:30:01;;;;;;;0.20;0.20;;;21.80;99.90;;;;;;5031726;28;20037;-90
2022/08/18 12:32:31;;;;;;;0.10;0.10;;;21.80;99.90;;;;;;5031451;28;20525;-89
2022/08/18 12:34:59;;;;;;;0.17;0.15;;;21.80;99.90;;;;;;5047643;28;20056;-89
2022/08/18 12:37:28;;;;;;;0.08;0.08;;;21.80;99.90;;;;;;5030963;28;20049;-83
2022/08/18 12:39:56;;;;;;;0.15;0.15;;;21.80;99.90;;;;;;5031731;28;20042;-88
2022/08/18 12:42:24;;;;;;;0.20;0.20;;;21.80;99.90;;;;;;5031691;28;20037;-84
2022/08/18 12:44:51;;;;;;;0.15;0.10;;;21.80;99.90;;;;;;5015027;28;20072;-85
2022/08/18 12:47:24;;;;;;;1.17;0.20;;;21.90;99.90;;;;;;5014539;28;20065;-84
2022/08/18 12:49:51;;;;;;;0.35;0.30;;;21.90;99.90;;;;;;5031137;28;20065;-85
2022/08/18 12:52:19;;;;;;;0.20;0.20;;;22.00;99.90;;;;;;5015238;28;20399;-85
2022/08/18 12:54:46;;;;;;;0.32;0.25;;;22.20;99.90;;;;;;5028133;28;20042;-85
2022/08/18 12:57:25;;;;;;;0.20;0.20;;;22.40;99.90;;;;;;5030689;28;20052;-85
2022/08/18 12:59:53;;;;;;;0.30;0.30;;;22.60;99.90;;;;;;5014876;28;20049;-85
2022/08/18 13:02:20;;;;;;;0.40;0.30;;;22.80;99.90;;;;;;4998555;28;20666;-85
2022/08/18 13:04:47;;;;;;;0.93;0.50;;;22.80;99.90;;;;;;4982202;28;20050;-85
2022/08/18 13:07:17;;;;;;;0.95;0.60;;;22.90;99.90;;;;;;4998500;28;20040;-85
2022/08/18 13:09:44;;;;;;;0.43;0.30;;;23.00;99.90;;;;;;4982876;28;20038;-85
2022/08/18 13:12:12;;;;;;;0.60;0.43;;;23.00;99.90;;;;;;5030584;28;20125;-85
2022/08/18 13:14:39;;;;;;;0.45;0.30;;;23.00;99.90;;;;;;4981718;28;20096;-86
2022/08/18 13:17:06;;;;;;;0.30;0.30;;;22.90;99.90;;;;;;4998120;28;20042;-85
2022/08/18 13:19:33;;;;;;;0.30;0.30;;;22.80;99.90;;;;;;4997922;28;20129;-85
2022/08/18 13:21:59;;;;;;;0.50;0.30;;;22.70;99.90;;;;;;5014434;28;20045;-85
2022/08/18 13:24:26;;;;;;;0.20;0.20;;;22.50;99.90;;;;;;4996378;28;20160;-86
2022/08/18 13:26:54;;;;;;;0.20;0.20;;;22.40;99.90;;;;;;4978851;28;20377;-85
2022/08/18 13:29:22;;;;;;;0.38;0.38;;;22.30;99.90;;;;;;4963347;28;20838;-85
2022/08/18 13:31:49;;;;;;;0.28;0.28;;;22.20;99.90;;;;;;4978620;28;20101;-85
2022/08/18 13:34:17;;;;;;;0.20;0.20;;;22.20;99.90;;;;;;4963539;28;20042;-84
2022/08/18 13:36:43;;;;;;;0.70;0.40;;;22.10;99.90;;;;;;4976790;28;20109;-85